sensor_id;sensor_type;location;lat;lon;timestamp;P1;durP1;ratioP1;P2;durP2;ratioP2
80842;SDS011;70255;53.686;10.778;2023-07-28T00:02:15;9.27;;;4.80;;
80842;SDS011;70255;53.686;10.778;2023-07-28T00:04:40;10.20;;;5.17;;
80842;SDS011;70255;53.686;10.778;2023-07-28T00:07:05;9.57;;;5.07;;
80842;SDS011;70255;53.686;10.778;2023-07-28T00:09:31;9.65;;;5.93;;
80842;SDS011;70255;53.686;10.778;2023-07-28T00:11:56;9.17;;;5.63;;
80842;SDS011;70255;53.686;10.778;2023-07-28T00:14:22;10.20;;;5.55;;
80842;SDS011;70255;53.686;10.778;2023-07-28T00:16:49;9.88;;;5.95;;
80842;SDS011;70255;53.686;10.778;2023-07-28T00:19:14;9.80;;;4.87;;
80842;SDS011;70255;53.686;10.778;2023-07-28T00:21:39;10.82;;;5.72;;
80842;SDS011;70255;53.686;10.778;2023-07-28T00:24:05;8.53;;;5.20;;
80842;SDS011;70255;53.686;10.778;2023-07-28T00:26:30;11.60;;;5.60;;
80842;SDS011;70255;53.686;10.778;2023-07-28T00:28:55;8.30;;;5.00;;
80842;SDS011;70255;53.686;10.778;2023-07-28T00:31:21;8.35;;;4.20;;
80842;SDS011;70255;53.686;10.778;2023-07-28T00:33:46;8.47;;;5.47;;
80842;SDS011;70255;53.686;10.778;2023-07-28T00:36:11;8.95;;;4.75;;
80842;SDS011;70255;53.686;10.778;2023-07-28T00:38:37;8.97;;;5.20;;
80842;SDS011;70255;53.686;10.778;2023-07-28T00:41:02;8.97;;;5.00;;
80842;SDS011;70255;53.686;10.778;2023-07-28T00:43:27;8.70;;;4.77;;
80842;SDS011;70255;53.686;10.778;2023-07-28T00:45:52;8.73;;;5.23;;
80842;SDS011;70255;53.686;10.778;2023-07-28T00:48:18;9.15;;;5.10;;
80842;SDS011;70255;53.686;10.778;2023-07-28T00:50:45;6.85;;;4.07;;
80842;SDS011;70255;53.686;10.778;2023-07-28T00:53:12;8.18;;;5.05;;
80842;SDS011;70255;53.686;10.778;2023-07-28T00:55:37;8.38;;;4.93;;
80842;SDS011;70255;53.686;10.778;2023-07-28T00:58:03;8.88;;;4.65;;
80842;SDS011;70255;53.686;10.778;2023-07-28T01:00:28;6.83;;;4.30;;
80842;SDS011;70255;53.686;10.778;2023-07-28T01:02:53;7.53;;;4.27;;
80842;SDS011;70255;53.686;10.778;2023-07-28T01:05:19;8.93;;;5.18;;
80842;SDS011;70255;53.686;10.778;2023-07-28T01:07:53;8.73;;;4.78;;
80842;SDS011;70255;53.686;10.778;2023-07-28T01:10:24;6.63;;;4.15;;
80842;SDS011;70255;53.686;10.778;2023-07-28T01:12:51;6.78;;;4.13;;
80842;SDS011;70255;53.686;10.778;2023-07-28T01:15:16;8.03;;;3.80;;
80842;SDS011;70255;53.686;10.778;2023-07-28T01:17:42;8.80;;;4.60;;
80842;SDS011;70255;53.686;10.778;2023-07-28T01:20:07;7.55;;;4.20;;
80842;SDS011;70255;53.686;10.778;2023-07-28T01:27:44;6.82;;;4.30;;
80842;SDS011;70255;53.686;10.778;2023-07-28T01:30:10;6.57;;;3.75;;
80842;SDS011;70255;53.686;10.778;2023-07-28T01:32:36;10.65;;;5.70;;
80842;SDS011;70255;53.686;10.778;2023-07-28T01:35:02;7.97;;;4.00;;
80842;SDS011;70255;53.686;10.778;2023-07-28T01:37:28;7.10;;;4.00;;
80842;SDS011;70255;53.686;10.778;2023-07-28T01:39:53;7.40;;;4.35;;
80842;SDS011;70255;53.686;10.778;2023-07-28T01:42:19;10.57;;;4.53;;
80842;SDS011;70255;53.686;10.778;2023-07-28T01:44:44;6.23;;;3.60;;
80842;SDS011;70255;53.686;10.778;2023-07-28T01:47:10;6.93;;;3.97;;
80842;SDS011;70255;53.686;10.778;2023-07-28T01:49:35;6.82;;;3.90;;
80842;SDS011;70255;53.686;10.778;2023-07-28T01:52:00;8.30;;;4.10;;
80842;SDS011;70255;53.686;10.778;2023-07-28T01:54:25;5.90;;;3.83;;
80842;SDS011;70255;53.686;10.778;2023-07-28T01:56:51;7.73;;;4.20;;
80842;SDS011;70255;53.686;10.778;2023-07-28T01:59:16;7.33;;;4.70;;
80842;SDS011;70255;53.686;10.778;2023-07-28T02:01:41;8.10;;;4.87;;
80842;SDS011;70255;53.686;10.778;2023-07-28T02:04:06;8.60;;;4.87;;
80842;SDS011;70255;53.686;10.778;2023-07-28T02:06:31;6.85;;;4.40;;
80842;SDS011;70255;53.686;10.778;2023-07-28T02:08:57;6.87;;;4.07;;
80842;SDS011;70255;53.686;10.778;2023-07-28T02:11:22;7.53;;;4.00;;
80842;SDS011;70255;53.686;10.778;2023-07-28T02:13:47;7.53;;;4.37;;
80842;SDS011;70255;53.686;10.778;2023-07-28T02:16:12;9.43;;;5.20;;
80842;SDS011;70255;53.686;10.778;2023-07-28T02:18:37;6.27;;;4.17;;
80842;SDS011;70255;53.686;10.778;2023-07-28T02:21:03;7.67;;;4.70;;
80842;SDS011;70255;53.686;10.778;2023-07-28T02:23:28;6.83;;;3.63;;
80842;SDS011;70255;53.686;10.778;2023-07-28T02:25:53;8.60;;;4.93;;
80842;SDS011;70255;53.686;10.778;2023-07-28T02:28:18;6.57;;;3.60;;
80842;SDS011;70255;53.686;10.778;2023-07-28T02:30:44;7.82;;;4.82;;
80842;SDS011;70255;53.686;10.778;2023-07-28T02:33:09;9.40;;;5.67;;
80842;SDS011;70255;53.686;10.778;2023-07-28T02:35:34;9.03;;;5.47;;
80842;SDS011;70255;53.686;10.778;2023-07-28T02:38:01;9.30;;;5.30;;
80842;SDS011;70255;53.686;10.778;2023-07-28T02:40:26;8.07;;;4.97;;
80842;SDS011;70255;53.686;10.778;2023-07-28T02:42:51;9.87;;;5.97;;
80842;SDS011;70255;53.686;10.778;2023-07-28T02:45:18;9.70;;;5.50;;
80842;SDS011;70255;53.686;10.778;2023-07-28T02:47:43;8.98;;;6.25;;
80842;SDS011;70255;53.686;10.778;2023-07-28T02:50:09;8.17;;;5.10;;
80842;SDS011;70255;53.686;10.778;2023-07-28T02:52:34;8.87;;;5.43;;
80842;SDS011;70255;53.686;10.778;2023-07-28T02:54:59;7.77;;;4.23;;
80842;SDS011;70255;53.686;10.778;2023-07-28T02:57:24;7.70;;;4.83;;
80842;SDS011;70255;53.686;10.778;2023-07-28T02:59:50;10.23;;;5.73;;
80842;SDS011;70255;53.686;10.778;2023-07-28T03:02:15;7.10;;;4.20;;
80842;SDS011;70255;53.686;10.778;2023-07-28T03:04:40;8.30;;;4.47;;
80842;SDS011;70255;53.686;10.778;2023-07-28T03:07:05;6.93;;;4.50;;
80842;SDS011;70255;53.686;10.778;2023-07-28T03:09:30;7.27;;;4.30;;
80842;SDS011;70255;53.686;10.778;2023-07-28T03:11:56;6.90;;;4.17;;
80842;SDS011;70255;53.686;10.778;2023-07-28T03:14:21;6.95;;;3.95;;
80842;SDS011;70255;53.686;10.778;2023-07-28T03:16:46;7.50;;;4.13;;
80842;SDS011;70255;53.686;10.778;2023-07-28T03:19:11;6.70;;;4.10;;
80842;SDS011;70255;53.686;10.778;2023-07-28T03:21:37;6.70;;;3.13;;
80842;SDS011;70255;53.686;10.778;2023-07-28T03:24:02;6.57;;;4.17;;
80842;SDS011;70255;53.686;10.778;2023-07-28T03:26:27;5.68;;;3.42;;
80842;SDS011;70255;53.686;10.778;2023-07-28T03:28:52;6.27;;;3.53;;
80842;SDS011;70255;53.686;10.778;2023-07-28T03:31:18;5.50;;;3.00;;
80842;SDS011;70255;53.686;10.778;2023-07-28T03:33:43;6.67;;;3.17;;
80842;SDS011;70255;53.686;10.778;2023-07-28T03:36:08;6.90;;;4.07;;
80842;SDS011;70255;53.686;10.778;2023-07-28T03:38:33;6.03;;;3.43;;
80842;SDS011;70255;53.686;10.778;2023-07-28T03:40:59;6.17;;;3.00;;
80842;SDS011;70255;53.686;10.778;2023-07-28T03:43:24;5.28;;;3.10;;
80842;SDS011;70255;53.686;10.778;2023-07-28T03:45:49;6.07;;;3.47;;
80842;SDS011;70255;53.686;10.778;2023-07-28T03:48:14;5.90;;;2.40;;
80842;SDS011;70255;53.686;10.778;2023-07-28T03:50:39;3.73;;;2.20;;
80842;SDS011;70255;53.686;10.778;2023-07-28T03:53:05;6.63;;;2.90;;
80842;SDS011;70255;53.686;10.778;2023-07-28T03:55:30;5.10;;;2.40;;
80842;SDS011;70255;53.686;10.778;2023-07-28T03:57:55;5.57;;;2.57;;
80842;SDS011;70255;53.686;10.778;2023-07-28T04:00:20;4.13;;;2.37;;
80842;SDS011;70255;53.686;10.778;2023-07-28T04:02:46;3.67;;;2.10;;
80842;SDS011;70255;53.686;10.778;2023-07-28T04:05:11;3.97;;;2.42;;
80842;SDS011;70255;53.686;10.778;2023-07-28T04:07:36;3.88;;;1.98;;
80842;SDS011;70255;53.686;10.778;2023-07-28T04:10:02;3.23;;;1.90;;
80842;SDS011;70255;53.686;10.778;2023-07-28T04:12:27;4.00;;;2.15;;
80842;SDS011;70255;53.686;10.778;2023-07-28T04:14:52;3.73;;;1.80;;
80842;SDS011;70255;53.686;10.778;2023-07-28T04:17:17;3.33;;;2.00;;
80842;SDS011;70255;53.686;10.778;2023-07-28T04:19:43;3.40;;;1.77;;
80842;SDS011;70255;53.686;10.778;2023-07-28T04:22:08;3.90;;;2.10;;
80842;SDS011;70255;53.686;10.778;2023-07-28T04:24:33;5.03;;;2.07;;
80842;SDS011;70255;53.686;10.778;2023-07-28T04:26:59;3.58;;;1.83;;
80842;SDS011;70255;53.686;10.778;2023-07-28T04:29:24;3.65;;;2.15;;
80842;SDS011;70255;53.686;10.778;2023-07-28T04:31:50;3.85;;;1.95;;
80842;SDS011;70255;53.686;10.778;2023-07-28T04:34:15;3.50;;;2.23;;
80842;SDS011;70255;53.686;10.778;2023-07-28T04:36:40;4.13;;;2.30;;
80842;SDS011;70255;53.686;10.778;2023-07-28T04:39:05;3.87;;;2.30;;
80842;SDS011;70255;53.686;10.778;2023-07-28T04:41:30;5.30;;;2.87;;
80842;SDS011;70255;53.686;10.778;2023-07-28T04:43:56;5.50;;;2.67;;
80842;SDS011;70255;53.686;10.778;2023-07-28T04:46:21;4.72;;;2.83;;
80842;SDS011;70255;53.686;10.778;2023-07-28T04:48:47;5.97;;;2.80;;
80842;SDS011;70255;53.686;10.778;2023-07-28T04:51:12;4.90;;;2.90;;
80842;SDS011;70255;53.686;10.778;2023-07-28T04:53:37;4.37;;;2.73;;
80842;SDS011;70255;53.686;10.778;2023-07-28T04:56:02;4.80;;;2.93;;
80842;SDS011;70255;53.686;10.778;2023-07-28T04:58:28;4.65;;;2.80;;
80842;SDS011;70255;53.686;10.778;2023-07-28T05:00:53;5.18;;;3.15;;
80842;SDS011;70255;53.686;10.778;2023-07-28T05:03:19;5.53;;;3.13;;
80842;SDS011;70255;53.686;10.778;2023-07-28T05:05:44;7.60;;;3.53;;
80842;SDS011;70255;53.686;10.778;2023-07-28T05:08:10;5.85;;;3.50;;
80842;SDS011;70255;53.686;10.778;2023-07-28T05:10:35;5.32;;;3.63;;
80842;SDS011;70255;53.686;10.778;2023-07-28T05:13:00;5.57;;;3.40;;
80842;SDS011;70255;53.686;10.778;2023-07-28T05:15:25;5.50;;;3.50;;
80842;SDS011;70255;53.686;10.778;2023-07-28T05:17:51;6.37;;;3.80;;
80842;SDS011;70255;53.686;10.778;2023-07-28T05:20:16;5.90;;;3.53;;
80842;SDS011;70255;53.686;10.778;2023-07-28T05:22:41;5.85;;;3.70;;
80842;SDS011;70255;53.686;10.778;2023-07-28T05:25:06;6.63;;;3.80;;
80842;SDS011;70255;53.686;10.778;2023-07-28T05:27:32;6.88;;;4.40;;
80842;SDS011;70255;53.686;10.778;2023-07-28T05:29:57;7.57;;;4.53;;
80842;SDS011;70255;53.686;10.778;2023-07-28T05:32:22;7.70;;;4.37;;
80842;SDS011;70255;53.686;10.778;2023-07-28T05:34:48;6.10;;;4.00;;
80842;SDS011;70255;53.686;10.778;2023-07-28T05:37:13;6.55;;;3.97;;
80842;SDS011;70255;53.686;10.778;2023-07-28T05:39:38;6.97;;;4.13;;
80842;SDS011;70255;53.686;10.778;2023-07-28T05:42:04;8.00;;;4.13;;
80842;SDS011;70255;53.686;10.778;2023-07-28T05:44:29;11.02;;;4.35;;
80842;SDS011;70255;53.686;10.778;2023-07-28T05:46:54;6.33;;;3.93;;
80842;SDS011;70255;53.686;10.778;2023-07-28T05:49:19;7.00;;;3.87;;
80842;SDS011;70255;53.686;10.778;2023-07-28T05:51:44;6.90;;;4.63;;
80842;SDS011;70255;53.686;10.778;2023-07-28T05:54:11;6.40;;;4.17;;
80842;SDS011;70255;53.686;10.778;2023-07-28T05:56:37;6.57;;;4.20;;
80842;SDS011;70255;53.686;10.778;2023-07-28T05:59:03;8.65;;;4.32;;
80842;SDS011;70255;53.686;10.778;2023-07-28T06:01:28;7.43;;;4.73;;
80842;SDS011;70255;53.686;10.778;2023-07-28T06:03:54;7.60;;;4.40;;
80842;SDS011;70255;53.686;10.778;2023-07-28T06:06:23;8.32;;;4.45;;
80842;SDS011;70255;53.686;10.778;2023-07-28T06:08:49;8.70;;;5.37;;
80842;SDS011;70255;53.686;10.778;2023-07-28T06:11:14;7.20;;;4.77;;
80842;SDS011;70255;53.686;10.778;2023-07-28T06:13:39;10.07;;;5.77;;
80842;SDS011;70255;53.686;10.778;2023-07-28T06:16:04;7.13;;;4.30;;
80842;SDS011;70255;53.686;10.778;2023-07-28T06:18:30;6.43;;;4.13;;
80842;SDS011;70255;53.686;10.778;2023-07-28T06:20:55;6.93;;;4.87;;
80842;SDS011;70255;53.686;10.778;2023-07-28T06:23:20;7.37;;;4.77;;
80842;SDS011;70255;53.686;10.778;2023-07-28T06:25:45;6.50;;;4.53;;
80842;SDS011;70255;53.686;10.778;2023-07-28T06:28:11;8.95;;;4.78;;
80842;SDS011;70255;53.686;10.778;2023-07-28T06:30:37;7.72;;;4.78;;
80842;SDS011;70255;53.686;10.778;2023-07-28T06:33:02;7.75;;;5.20;;
80842;SDS011;70255;53.686;10.778;2023-07-28T06:35:28;6.88;;;4.50;;
80842;SDS011;70255;53.686;10.778;2023-07-28T06:37:53;6.45;;;4.30;;
80842;SDS011;70255;53.686;10.778;2023-07-28T06:40:18;8.23;;;4.40;;
80842;SDS011;70255;53.686;10.778;2023-07-28T06:42:44;7.87;;;5.50;;
80842;SDS011;70255;53.686;10.778;2023-07-28T06:45:09;7.70;;;5.03;;
80842;SDS011;70255;53.686;10.778;2023-07-28T06:47:34;7.30;;;4.88;;
80842;SDS011;70255;53.686;10.778;2023-07-28T06:49:59;8.60;;;5.60;;
80842;SDS011;70255;53.686;10.778;2023-07-28T06:52:25;9.13;;;5.00;;
80842;SDS011;70255;53.686;10.778;2023-07-28T06:54:50;7.60;;;4.68;;
80842;SDS011;70255;53.686;10.778;2023-07-28T06:57:15;7.47;;;4.60;;
80842;SDS011;70255;53.686;10.778;2023-07-28T06:59:41;7.45;;;4.10;;
80842;SDS011;70255;53.686;10.778;2023-07-28T07:02:06;6.55;;;4.18;;
80842;SDS011;70255;53.686;10.778;2023-07-28T07:04:31;7.70;;;3.90;;
80842;SDS011;70255;53.686;10.778;2023-07-28T07:06:57;7.73;;;4.70;;
80842;SDS011;70255;53.686;10.778;2023-07-28T07:09:22;6.57;;;4.17;;
80842;SDS011;70255;53.686;10.778;2023-07-28T07:11:47;7.27;;;4.77;;
80842;SDS011;70255;53.686;10.778;2023-07-28T07:14:12;8.23;;;4.43;;
80842;SDS011;70255;53.686;10.778;2023-07-28T07:16:39;6.15;;;4.38;;
80842;SDS011;70255;53.686;10.778;2023-07-28T07:19:04;6.57;;;4.30;;
80842;SDS011;70255;53.686;10.778;2023-07-28T07:21:29;6.93;;;4.53;;
80842;SDS011;70255;53.686;10.778;2023-07-28T07:23:55;7.30;;;5.03;;
80842;SDS011;70255;53.686;10.778;2023-07-28T07:26:20;7.87;;;4.77;;
80842;SDS011;70255;53.686;10.778;2023-07-28T07:28:45;6.60;;;4.50;;
80842;SDS011;70255;53.686;10.778;2023-07-28T07:31:16;7.10;;;4.50;;
80842;SDS011;70255;53.686;10.778;2023-07-28T07:33:41;6.43;;;4.80;;
80842;SDS011;70255;53.686;10.778;2023-07-28T07:36:13;6.78;;;4.05;;
80842;SDS011;70255;53.686;10.778;2023-07-28T07:38:39;5.22;;;3.92;;
80842;SDS011;70255;53.686;10.778;2023-07-28T07:41:06;5.97;;;4.13;;
80842;SDS011;70255;53.686;10.778;2023-07-28T07:43:31;5.03;;;3.28;;
80842;SDS011;70255;53.686;10.778;2023-07-28T07:45:56;8.03;;;3.90;;
80842;SDS011;70255;53.686;10.778;2023-07-28T07:48:22;5.68;;;3.40;;
80842;SDS011;70255;53.686;10.778;2023-07-28T07:50:47;4.85;;;3.42;;
80842;SDS011;70255;53.686;10.778;2023-07-28T07:53:12;4.13;;;2.60;;
80842;SDS011;70255;53.686;10.778;2023-07-28T07:55:38;5.20;;;2.80;;
80842;SDS011;70255;53.686;10.778;2023-07-28T07:58:03;3.50;;;2.27;;
80842;SDS011;70255;53.686;10.778;2023-07-28T08:00:28;3.78;;;2.50;;
80842;SDS011;70255;53.686;10.778;2023-07-28T08:02:54;4.75;;;2.95;;
80842;SDS011;70255;53.686;10.778;2023-07-28T08:05:19;3.67;;;2.50;;
80842;SDS011;70255;53.686;10.778;2023-07-28T08:07:45;6.00;;;3.20;;
80842;SDS011;70255;53.686;10.778;2023-07-28T08:10:12;3.90;;;2.45;;
80842;SDS011;70255;53.686;10.778;2023-07-28T08:12:37;4.03;;;2.90;;
80842;SDS011;70255;53.686;10.778;2023-07-28T08:15:03;4.00;;;2.33;;
80842;SDS011;70255;53.686;10.778;2023-07-28T08:17:28;3.38;;;2.17;;
80842;SDS011;70255;53.686;10.778;2023-07-28T08:19:53;3.30;;;2.23;;
80842;SDS011;70255;53.686;10.778;2023-07-28T08:22:18;3.67;;;2.37;;
80842;SDS011;70255;53.686;10.778;2023-07-28T08:24:44;3.40;;;2.50;;
80842;SDS011;70255;53.686;10.778;2023-07-28T08:27:09;3.60;;;2.27;;
80842;SDS011;70255;53.686;10.778;2023-07-28T08:29:34;4.70;;;2.63;;
80842;SDS011;70255;53.686;10.778;2023-07-28T08:31:59;3.70;;;2.60;;
80842;SDS011;70255;53.686;10.778;2023-07-28T08:34:25;3.60;;;2.70;;
80842;SDS011;70255;53.686;10.778;2023-07-28T08:36:50;4.40;;;2.70;;
80842;SDS011;70255;53.686;10.778;2023-07-28T08:39:15;3.97;;;2.47;;
80842;SDS011;70255;53.686;10.778;2023-07-28T08:41:41;3.60;;;2.30;;
80842;SDS011;70255;53.686;10.778;2023-07-28T08:44:07;3.40;;;2.20;;
80842;SDS011;70255;53.686;10.778;2023-07-28T08:46:32;4.38;;;2.30;;
80842;SDS011;70255;53.686;10.778;2023-07-28T08:48:59;3.85;;;2.35;;
80842;SDS011;70255;53.686;10.778;2023-07-28T08:51:24;3.15;;;2.17;;
80842;SDS011;70255;53.686;10.778;2023-07-28T08:53:49;4.27;;;2.40;;
80842;SDS011;70255;53.686;10.778;2023-07-28T08:56:14;3.97;;;2.13;;
80842;SDS011;70255;53.686;10.778;2023-07-28T08:58:40;3.37;;;2.33;;
80842;SDS011;70255;53.686;10.778;2023-07-28T09:01:05;3.27;;;1.90;;
80842;SDS011;70255;53.686;10.778;2023-07-28T09:03:30;3.45;;;2.22;;
80842;SDS011;70255;53.686;10.778;2023-07-28T09:06:00;5.40;;;2.28;;
80842;SDS011;70255;53.686;10.778;2023-07-28T09:08:26;3.85;;;2.15;;
80842;SDS011;70255;53.686;10.778;2023-07-28T09:10:51;3.42;;;2.00;;
80842;SDS011;70255;53.686;10.778;2023-07-28T09:13:17;2.70;;;1.63;;
80842;SDS011;70255;53.686;10.778;2023-07-28T09:15:44;2.85;;;2.03;;
80842;SDS011;70255;53.686;10.778;2023-07-28T09:18:09;2.92;;;1.88;;
80842;SDS011;70255;53.686;10.778;2023-07-28T09:20:39;2.92;;;1.48;;
80842;SDS011;70255;53.686;10.778;2023-07-28T09:23:04;3.00;;;1.75;;
80842;SDS011;70255;53.686;10.778;2023-07-28T09:25:30;2.38;;;1.67;;
80842;SDS011;70255;53.686;10.778;2023-07-28T09:27:56;2.38;;;1.70;;
80842;SDS011;70255;53.686;10.778;2023-07-28T09:30:22;2.67;;;1.42;;
80842;SDS011;70255;53.686;10.778;2023-07-28T09:32:51;2.50;;;1.65;;
80842;SDS011;70255;53.686;10.778;2023-07-28T09:35:17;2.50;;;1.50;;
80842;SDS011;70255;53.686;10.778;2023-07-28T09:37:43;3.22;;;1.10;;
80842;SDS011;70255;53.686;10.778;2023-07-28T09:40:10;2.10;;;1.20;;
80842;SDS011;70255;53.686;10.778;2023-07-28T09:42:39;2.58;;;1.20;;
80842;SDS011;70255;53.686;10.778;2023-07-28T09:45:05;1.90;;;1.00;;
80842;SDS011;70255;53.686;10.778;2023-07-28T09:47:32;1.90;;;1.02;;
80842;SDS011;70255;53.686;10.778;2023-07-28T09:49:58;2.70;;;1.40;;
80842;SDS011;70255;53.686;10.778;2023-07-28T09:52:23;2.33;;;1.30;;
80842;SDS011;70255;53.686;10.778;2023-07-28T09:54:49;2.40;;;1.00;;
80842;SDS011;70255;53.686;10.778;2023-07-28T09:57:19;1.98;;;1.05;;
80842;SDS011;70255;53.686;10.778;2023-07-28T09:59:45;1.75;;;1.05;;
80842;SDS011;70255;53.686;10.778;2023-07-28T10:02:11;4.30;;;1.50;;
80842;SDS011;70255;53.686;10.778;2023-07-28T10:04:37;2.22;;;1.30;;
80842;SDS011;70255;53.686;10.778;2023-07-28T10:07:03;1.70;;;1.00;;
80842;SDS011;70255;53.686;10.778;2023-07-28T10:09:29;2.55;;;0.90;;
80842;SDS011;70255;53.686;10.778;2023-07-28T10:11:55;1.50;;;0.73;;
80842;SDS011;70255;53.686;10.778;2023-07-28T10:16:53;1.60;;;0.82;;
80842;SDS011;70255;53.686;10.778;2023-07-28T10:19:21;1.73;;;0.90;;
80842;SDS011;70255;53.686;10.778;2023-07-28T10:21:49;1.95;;;0.93;;
80842;SDS011;70255;53.686;10.778;2023-07-28T10:24:15;2.33;;;1.00;;
80842;SDS011;70255;53.686;10.778;2023-07-28T10:26:40;1.43;;;0.90;;
80842;SDS011;70255;53.686;10.778;2023-07-28T10:29:09;1.60;;;0.93;;
80842;SDS011;70255;53.686;10.778;2023-07-28T10:31:35;2.22;;;1.50;;
80842;SDS011;70255;53.686;10.778;2023-07-28T10:34:01;1.70;;;0.88;;
80842;SDS011;70255;53.686;10.778;2023-07-28T10:41:26;1.88;;;1.13;;
80842;SDS011;70255;53.686;10.778;2023-07-28T10:43:52;2.27;;;0.97;;
80842;SDS011;70255;53.686;10.778;2023-07-28T10:46:18;3.83;;;1.03;;
80842;SDS011;70255;53.686;10.778;2023-07-28T10:48:44;1.80;;;0.90;;
80842;SDS011;70255;53.686;10.778;2023-07-28T10:51:10;2.13;;;1.17;;
80842;SDS011;70255;53.686;10.778;2023-07-28T10:53:36;1.52;;;0.75;;
80842;SDS011;70255;53.686;10.778;2023-07-28T10:56:02;2.58;;;0.90;;
80842;SDS011;70255;53.686;10.778;2023-07-28T10:58:28;1.33;;;0.90;;
80842;SDS011;70255;53.686;10.778;2023-07-28T11:00:53;1.70;;;0.90;;
80842;SDS011;70255;53.686;10.778;2023-07-28T11:03:18;2.00;;;0.80;;
80842;SDS011;70255;53.686;10.778;2023-07-28T11:05:45;2.50;;;1.00;;
80842;SDS011;70255;53.686;10.778;2023-07-28T11:08:10;1.50;;;0.75;;
80842;SDS011;70255;53.686;10.778;2023-07-28T11:10:35;1.30;;;0.77;;
80842;SDS011;70255;53.686;10.778;2023-07-28T11:13:02;1.33;;;0.70;;
80842;SDS011;70255;53.686;10.778;2023-07-28T11:15:28;1.52;;;0.70;;
80842;SDS011;70255;53.686;10.778;2023-07-28T11:17:53;1.08;;;0.60;;
80842;SDS011;70255;53.686;10.778;2023-07-28T11:20:19;1.42;;;0.90;;
80842;SDS011;70255;53.686;10.778;2023-07-28T11:22:46;2.80;;;0.88;;
80842;SDS011;70255;53.686;10.778;2023-07-28T11:25:11;2.08;;;0.75;;
80842;SDS011;70255;53.686;10.778;2023-07-28T11:27:37;3.33;;;0.85;;
80842;SDS011;70255;53.686;10.778;2023-07-28T11:30:03;2.90;;;0.82;;
80842;SDS011;70255;53.686;10.778;2023-07-28T11:32:34;2.30;;;0.93;;
80842;SDS011;70255;53.686;10.778;2023-07-28T11:35:05;2.35;;;0.95;;
80842;SDS011;70255;53.686;10.778;2023-07-28T11:37:30;1.77;;;0.98;;
80842;SDS011;70255;53.686;10.778;2023-07-28T11:39:56;1.60;;;0.82;;
80842;SDS011;70255;53.686;10.778;2023-07-28T11:42:22;2.10;;;0.90;;
80842;SDS011;70255;53.686;10.778;2023-07-28T11:44:47;2.60;;;1.00;;
80842;SDS011;70255;53.686;10.778;2023-07-28T11:47:16;2.23;;;1.00;;
80842;SDS011;70255;53.686;10.778;2023-07-28T11:49:45;1.35;;;0.80;;
80842;SDS011;70255;53.686;10.778;2023-07-28T11:52:11;2.35;;;1.00;;
80842;SDS011;70255;53.686;10.778;2023-07-28T11:54:36;1.27;;;0.73;;
80842;SDS011;70255;53.686;10.778;2023-07-28T11:57:01;2.03;;;0.90;;
80842;SDS011;70255;53.686;10.778;2023-07-28T11:59:27;1.60;;;0.60;;
80842;SDS011;70255;53.686;10.778;2023-07-28T12:04:25;1.63;;;0.77;;
80842;SDS011;70255;53.686;10.778;2023-07-28T12:07:00;1.20;;;0.63;;
80842;SDS011;70255;53.686;10.778;2023-07-28T12:09:25;1.38;;;0.88;;
80842;SDS011;70255;53.686;10.778;2023-07-28T12:11:51;2.10;;;0.80;;
80842;SDS011;70255;53.686;10.778;2023-07-28T12:14:16;2.40;;;1.00;;
80842;SDS011;70255;53.686;10.778;2023-07-28T12:16:54;3.05;;;0.90;;
80842;SDS011;70255;53.686;10.778;2023-07-28T12:19:20;2.10;;;0.82;;
80842;SDS011;70255;53.686;10.778;2023-07-28T12:21:45;1.10;;;0.70;;
80842;SDS011;70255;53.686;10.778;2023-07-28T12:24:10;1.67;;;0.67;;
80842;SDS011;70255;53.686;10.778;2023-07-28T12:26:35;1.60;;;0.80;;
80842;SDS011;70255;53.686;10.778;2023-07-28T12:29:01;1.67;;;0.60;;
80842;SDS011;70255;53.686;10.778;2023-07-28T12:31:26;1.23;;;0.90;;
80842;SDS011;70255;53.686;10.778;2023-07-28T12:33:51;1.23;;;0.70;;
80842;SDS011;70255;53.686;10.778;2023-07-28T12:36:17;1.67;;;0.80;;
80842;SDS011;70255;53.686;10.778;2023-07-28T12:38:42;1.25;;;0.70;;
80842;SDS011;70255;53.686;10.778;2023-07-28T12:41:08;1.20;;;0.60;;
80842;SDS011;70255;53.686;10.778;2023-07-28T12:43:33;1.75;;;0.90;;
80842;SDS011;70255;53.686;10.778;2023-07-28T12:45:59;2.00;;;0.93;;
80842;SDS011;70255;53.686;10.778;2023-07-28T12:48:24;2.67;;;0.90;;
80842;SDS011;70255;53.686;10.778;2023-07-28T12:50:50;2.13;;;0.80;;
80842;SDS011;70255;53.686;10.778;2023-07-28T12:53:16;1.95;;;0.82;;
80842;SDS011;70255;53.686;10.778;2023-07-28T12:55:41;1.70;;;0.80;;
80842;SDS011;70255;53.686;10.778;2023-07-28T12:58:06;3.87;;;1.00;;
80842;SDS011;70255;53.686;10.778;2023-07-28T13:00:31;1.87;;;1.03;;
80842;SDS011;70255;53.686;10.778;2023-07-28T13:02:57;1.88;;;0.98;;
80842;SDS011;70255;53.686;10.778;2023-07-28T13:05:22;3.27;;;0.80;;
80842;SDS011;70255;53.686;10.778;2023-07-28T13:07:48;1.63;;;0.80;;
80842;SDS011;70255;53.686;10.778;2023-07-28T13:10:13;1.53;;;0.70;;
80842;SDS011;70255;53.686;10.778;2023-07-28T13:12:38;1.60;;;0.90;;
80842;SDS011;70255;53.686;10.778;2023-07-28T13:15:04;2.63;;;1.00;;
80842;SDS011;70255;53.686;10.778;2023-07-28T13:17:29;1.83;;;0.93;;
80842;SDS011;70255;53.686;10.778;2023-07-28T13:19:54;1.90;;;0.95;;
80842;SDS011;70255;53.686;10.778;2023-07-28T13:22:22;5.90;;;1.50;;
80842;SDS011;70255;53.686;10.778;2023-07-28T13:24:47;2.35;;;0.82;;
80842;SDS011;70255;53.686;10.778;2023-07-28T13:27:12;1.60;;;0.90;;
80842;SDS011;70255;53.686;10.778;2023-07-28T13:29:37;1.70;;;1.10;;
80842;SDS011;70255;53.686;10.778;2023-07-28T13:32:03;1.50;;;0.73;;
80842;SDS011;70255;53.686;10.778;2023-07-28T13:34:28;1.65;;;0.90;;
80842;SDS011;70255;53.686;10.778;2023-07-28T13:36:54;2.30;;;0.70;;
80842;SDS011;70255;53.686;10.778;2023-07-28T13:39:20;2.22;;;0.82;;
80842;SDS011;70255;53.686;10.778;2023-07-28T13:41:45;1.40;;;0.70;;
80842;SDS011;70255;53.686;10.778;2023-07-28T13:44:10;2.10;;;0.80;;
80842;SDS011;70255;53.686;10.778;2023-07-28T13:46:36;1.30;;;0.70;;
80842;SDS011;70255;53.686;10.778;2023-07-28T13:49:01;1.30;;;0.70;;
80842;SDS011;70255;53.686;10.778;2023-07-28T13:51:26;2.50;;;1.00;;
80842;SDS011;70255;53.686;10.778;2023-07-28T13:53:52;1.45;;;0.80;;
80842;SDS011;70255;53.686;10.778;2023-07-28T13:56:17;1.90;;;0.67;;
80842;SDS011;70255;53.686;10.778;2023-07-28T13:58:43;1.58;;;0.90;;
80842;SDS011;70255;53.686;10.778;2023-07-28T14:01:09;1.40;;;0.73;;
80842;SDS011;70255;53.686;10.778;2023-07-28T14:03:34;1.50;;;0.83;;
80842;SDS011;70255;53.686;10.778;2023-07-28T14:05:59;1.13;;;0.70;;
80842;SDS011;70255;53.686;10.778;2023-07-28T14:08:24;2.37;;;0.60;;
80842;SDS011;70255;53.686;10.778;2023-07-28T14:10:50;1.23;;;0.67;;
80842;SDS011;70255;53.686;10.778;2023-07-28T14:13:15;1.80;;;1.00;;
80842;SDS011;70255;53.686;10.778;2023-07-28T14:15:40;2.27;;;0.90;;
80842;SDS011;70255;53.686;10.778;2023-07-28T14:18:05;2.63;;;0.93;;
80842;SDS011;70255;53.686;10.778;2023-07-28T14:20:31;1.97;;;0.93;;
80842;SDS011;70255;53.686;10.778;2023-07-28T14:22:59;6.20;;;0.70;;
80842;SDS011;70255;53.686;10.778;2023-07-28T14:25:24;1.35;;;0.82;;
80842;SDS011;70255;53.686;10.778;2023-07-28T14:27:50;1.87;;;0.80;;
80842;SDS011;70255;53.686;10.778;2023-07-28T14:30:15;2.83;;;0.83;;
80842;SDS011;70255;53.686;10.778;2023-07-28T14:32:40;1.50;;;0.90;;
80842;SDS011;70255;53.686;10.778;2023-07-28T14:35:05;1.20;;;0.70;;
80842;SDS011;70255;53.686;10.778;2023-07-28T14:37:30;1.40;;;0.73;;
80842;SDS011;70255;53.686;10.778;2023-07-28T14:39:56;1.90;;;0.90;;